Time;durP1;ratioP1;P1;durP2;ratioP2;P2;SDS_P1;SDS_P2;PMS_P1;PMS_P2;Temp;Humidity;BMP_temperature;BMP_pressure;BME280_temperature;BME280_humidity;BME280_pressure;Samples;Min_cycle;Max_cycle;Signal;HPM_P1;HPM_P2
2022/12/30 00:07:40;;;;;;;0.67;0.40;;;7.00;99.90;;;;;;20945771;28;20048;-77
2022/12/30 00:38:20;;;;;;;0.30;0.30;;;6.90;99.90;;;;;;20958835;28;20073;-76
2022/12/30 00:58:42;;;;;;;0.80;0.50;;;6.80;99.90;;;;;;20964438;28;20402;-77
2022/12/30 01:08:43;;;;;;;0.53;0.40;;;6.90;99.90;;;;;;20960815;28;20040;-76
2022/12/30 01:18:55;;;;;;;1.10;0.63;;;6.80;99.90;;;;;;20942802;28;20047;-77
2022/12/30 01:28:56;;;;;;;0.75;0.45;;;6.80;99.90;;;;;;20969979;28;20450;-77
2022/12/30 01:38:58;;;;;;;1.07;0.70;;;6.90;99.90;;;;;;20957824;28;20109;-77
2022/12/30 01:49:00;;;;;;;1.13;0.80;;;6.80;99.90;;;;;;20959016;28;20094;-77
2022/12/30 01:59:14;;;;;;;3.13;0.63;;;6.80;99.90;;;;;;20939673;28;20040;-77
2022/12/30 02:09:15;;;;;;;1.25;0.70;;;6.80;99.90;;;;;;20958203;28;20383;-77
2022/12/30 02:19:19;;;;;;;;;;;6.70;99.90;;;;;;20899540;28;20032;-77
2022/12/30 02:29:57;;;;;;;1.25;0.70;;;6.70;99.90;;;;;;20994697;28;19909;-77
2022/12/30 02:40:13;;;;;;;2.78;0.30;;;6.70;99.90;;;;;;20981527;28;20063;-77
2022/12/30 03:11:20;;;;;;;1.85;0.35;;;6.20;99.90;;;;;;20975924;28;20115;-76
2022/12/30 03:21:23;;;;;;;1.08;0.30;;;6.30;99.90;;;;;;21021003;28;20040;-76
2022/12/30 03:31:24;;;;;;;1.10;0.55;;;6.20;99.90;;;;;;20991795;28;20060;-76
2022/12/30 03:41:26;;;;;;;0.52;0.50;;;6.20;99.90;;;;;;20990121;28;20032;-76
2022/12/30 03:51:27;;;;;;;5.07;1.23;;;6.20;99.90;;;;;;21017374;28;20032;-77
2022/12/30 04:01:28;;;;;;;4.38;1.20;;;6.20;99.90;;;;;;21015869;28;20398;-76
2022/12/30 04:11:29;;;;;;;7.13;1.90;;;6.10;99.90;;;;;;20822078;28;20124;-76
2022/12/30 04:21:31;;;;;;;2.33;1.40;;;5.80;99.90;;;;;;20826828;28;20292;-76
2022/12/30 04:31:32;;;;;;;;;;;5.70;99.90;;;;;;20758585;28;20053;-76
2022/12/30 04:41:33;;;;;;;1.73;1.03;;;5.50;99.90;;;;;;20794207;28;19919;-76
2022/12/30 04:51:34;;;;;;;0.93;0.70;;;5.60;99.90;;;;;;21085014;22;20314;-80
2022/12/30 05:01:36;;;;;;;;;;;5.60;99.90;;;;;;21103581;28;20262;-82
2022/12/30 05:11:37;;;;;;;2.23;1.30;;;5.50;99.90;;;;;;21071584;28;19961;-81
2022/12/30 05:21:37;;;;;;;;;;;5.60;99.90;;;;;;21087259;28;20028;-79
2022/12/30 05:31:38;;;;;;;2.23;1.27;;;5.50;99.90;;;;;;21084410;28;19908;-82
2022/12/30 05:41:39;;;;;;;2.75;1.52;;;5.40;99.90;;;;;;21082631;28;20036;-83
2022/12/30 05:51:40;;;;;;;5.82;1.70;;;5.40;99.90;;;;;;21103246;28;20439;-80
2022/12/30 06:01:41;;;;;;;4.68;2.00;;;5.40;99.90;;;;;;21079992;28;20032;-81
2022/12/30 06:11:43;;;;;;;2.60;1.60;;;5.20;99.90;;;;;;21065340;28;20036;-82
2022/12/30 06:21:46;;;;;;;4.40;2.42;;;5.20;99.90;;;;;;21082223;28;20531;-82
2022/12/30 06:31:49;;;;;;;5.88;2.88;;;4.60;99.90;;;;;;20983325;28;20056;-83
2022/12/30 06:41:51;;;;;;;5.65;3.42;;;4.90;99.90;;;;;;20981150;28;20077;-81
2022/12/30 06:51:52;;;;;;;;;;;5.00;99.90;;;;;;20993438;28;20549;-81
2022/12/30 07:01:54;;;;;;;5.97;3.53;;;5.20;99.90;;;;;;21028995;28;19912;-80
2022/12/30 07:11:56;;;;;;;9.00;4.20;;;5.00;99.90;;;;;;21008073;28;20086;-80
2022/12/30 07:21:57;;;;;;;10.65;4.55;;;4.90;99.90;;;;;;21024779;28;20032;-81
2022/12/30 07:31:58;;;;;;;49.22;5.50;;;4.80;99.90;;;;;;21073112;28;20035;-79
2022/12/30 07:41:59;;;;;;;9.57;5.38;;;4.70;99.90;;;;;;21071907;28;20042;-82
2022/12/30 07:52:00;;;;;;;28.25;5.65;;;4.60;99.90;;;;;;21086584;28;20073;-81
2022/12/30 08:02:01;;;;;;;28.13;6.43;;;4.50;99.90;;;;;;20851890;28;20045;-81
2022/12/30 08:12:02;;;;;;;21.17;6.85;;;4.80;99.90;;;;;;20816063;28;20450;-83
2022/12/30 08:22:04;;;;;;;156.48;11.68;;;4.90;99.90;;;;;;20858640;28;20159;-81
2022/12/30 08:32:04;;;;;;;35.03;8.98;;;5.10;99.90;;;;;;20854395;28;20049;-83
2022/12/30 08:42:06;;;;;;;15.93;5.63;;;5.40;99.90;;;;;;20907715;28;20139;-79
2022/12/30 08:52:07;;;;;;;9.18;4.90;;;5.80;99.90;;;;;;20909645;28;20069;-83
2022/12/30 09:02:11;;;;;;;;;;;6.00;99.90;;;;;;20979854;28;20048;-83
2022/12/30 09:12:13;;;;;;;6.40;3.92;;;6.70;99.90;;;;;;20981477;28;19916;-82
2022/12/30 09:22:15;;;;;;;7.80;3.95;;;6.50;99.90;;;;;;21042650;28;20032;-82
2022/12/30 09:32:16;;;;;;;5.93;3.28;;;7.30;99.90;;;;;;21027160;28;20043;-83
2022/12/30 09:52:56;;;;;;;6.05;3.20;;;6.80;99.90;;;;;;21103343;28;20028;-83
2022/12/30 10:03:10;;;;;;;5.00;2.92;;;7.30;99.90;;;;;;21069108;28;20052;-83
2022/12/30 10:13:48;;;;;;;4.60;2.28;;;7.50;99.90;;;;;;21079361;28;20032;-81
2022/12/30 10:24:12;;;;;;;5.60;2.88;;;8.20;99.90;;;;;;21024161;28;20051;-83
2022/12/30 10:34:23;;;;;;;5.32;3.42;;;8.30;99.90;;;;;;20810103;28;20037;-83
2022/12/30 10:44:49;;;;;;;7.55;4.53;;;7.40;99.90;;;;;;20802888;28;20045;-81
2022/12/30 10:54:50;;;;;;;7.72;5.05;;;7.20;99.90;;;;;;20965579;22;20059;-77
2022/12/30 11:04:51;;;;;;;8.00;4.10;;;6.80;99.90;;;;;;20950355;28;20044;-77
2022/12/30 11:15:27;;;;;;;8.83;5.33;;;7.00;99.90;;;;;;20950139;28;20287;-76
2022/12/30 11:25:42;;;;;;;15.32;5.47;;;7.10;99.90;;;;;;20929791;28;20279;-76
2022/12/30 11:35:46;;;;;;;5.50;3.95;;;7.70;99.90;;;;;;20944982;28;20559;-76
2022/12/30 11:46:06;;;;;;;8.55;5.07;;;7.90;99.90;;;;;;20970579;28;20036;-76
2022/12/30 11:56:07;;;;;;;9.57;5.25;;;7.50;99.90;;;;;;20969712;28;20032;-76
2022/12/30 12:06:10;;;;;;;7.10;4.27;;;7.40;99.90;;;;;;20946077;28;20029;-75
2022/12/30 12:16:45;;;;;;;7.28;3.72;;;7.60;99.90;;;;;;20981291;28;20491;-76
2022/12/30 12:27:03;;;;;;;6.32;4.15;;;7.60;99.90;;;;;;20987396;28;20060;-76
2022/12/30 12:37:40;;;;;;;11.18;3.22;;;7.50;99.90;;;;;;20993930;28;20032;-75
2022/12/30 12:48:25;;;;;;;8.23;3.35;;;7.40;99.90;;;;;;20664399;28;20088;-75
2022/12/30 12:58:50;;;;;;;6.47;3.67;;;7.40;99.90;;;;;;20599186;28;20043;-75
2022/12/30 13:09:36;;;;;;;9.43;4.32;;;7.10;99.90;;;;;;20344492;28;20044;-75
2022/12/30 13:19:37;;;;;;;10.52;5.50;;;6.90;99.90;;;;;;20424975;28;20039;-74
2022/12/30 13:29:40;;;;;;;14.32;6.93;;;6.80;99.90;;;;;;20576680;28;20049;-75
2022/12/30 13:39:52;;;;;;;14.73;7.72;;;6.80;99.90;;;;;;20700336;28;20039;-75
2022/12/30 13:49:54;;;;;;;11.63;6.25;;;6.70;99.90;;;;;;20985645;28;20445;-75
2022/12/30 14:00:14;;;;;;;16.55;8.00;;;6.60;99.90;;;;;;20935527;28;20568;-76
2022/12/30 14:10:18;;;;;;;10.20;6.00;;;6.70;99.90;;;;;;20939297;28;20438;-76
2022/12/30 14:20:27;;;;;;;7.45;4.57;;;6.60;99.90;;;;;;20986586;28;20426;-76
2022/12/30 14:30:40;;;;;;;12.80;5.40;;;6.60;99.90;;;;;;20994274;28;20032;-76
2022/12/30 14:40:41;;;;;;;14.77;7.35;;;6.70;99.90;;;;;;20993182;28;20111;-76
2022/12/30 14:50:46;;;;;;;;;;;6.70;99.90;;;;;;20975794;28;20491;-79
2022/12/30 15:00:51;;;;;;;39.03;14.18;;;6.70;99.90;;;;;;20992639;28;19916;-76
2022/12/30 15:11:09;;;;;;;9.35;5.47;;;6.70;99.90;;;;;;20988865;28;20032;-76
2022/12/30 15:21:12;;;;;;;9.57;5.45;;;6.80;99.90;;;;;;20991527;28;20037;-76
2022/12/30 15:31:21;;;;;;;14.20;7.50;;;6.90;99.90;;;;;;20898467;28;20055;-76
2022/12/30 15:41:26;;;;;;;9.90;6.10;;;6.90;99.90;;;;;;20880988;28;20052;-76
2022/12/30 15:51:35;;;;;;;8.68;5.55;;;6.90;99.90;;;;;;20880884;28;20049;-75
2022/12/30 16:01:39;;;;;;;11.23;6.45;;;7.00;99.90;;;;;;20960790;28;20521;-76
2022/12/30 16:11:50;;;;;;;9.98;6.47;;;7.00;99.90;;;;;;20962184;28;20060;-76
2022/12/30 16:21:59;;;;;;;11.65;6.90;;;7.10;99.90;;;;;;20945525;28;20367;-76
2022/12/30 16:32:00;;;;;;;8.90;5.78;;;7.00;99.90;;;;;;20953749;28;20020;-76
2022/12/30 16:42:01;;;;;;;9.18;4.97;;;7.10;99.90;;;;;;20949688;28;20043;-77
2022/12/30 16:52:03;;;;;;;7.57;4.63;;;7.20;99.90;;;;;;21021670;22;20040;-81
2022/12/30 17:02:04;;;;;;;4.90;3.40;;;7.20;99.90;;;;;;21075051;28;20039;-82
2022/12/30 17:12:07;;;;;;;7.68;4.32;;;7.20;99.90;;;;;;21079947;28;20062;-79
2022/12/30 17:22:08;;;;;;;6.82;4.40;;;7.40;99.90;;;;;;21054099;28;20039;-79
2022/12/30 17:32:35;;;;;;;7.65;5.43;;;7.40;99.90;;;;;;21026562;28;20033;-81
2022/12/30 17:42:37;;;;;;;10.52;6.22;;;7.30;99.90;;;;;;21101726;28;20024;-81
2022/12/30 17:52:37;;;;;;;;;;;7.30;99.90;;;;;;21108510;28;20056;-81
2022/12/30 18:02:39;;;;;;;12.00;7.40;;;7.60;99.90;;;;;;21101894;28;19934;-81
2022/12/30 18:12:43;;;;;;;9.75;5.78;;;7.40;99.90;;;;;;21106158;28;20032;-81
2022/12/30 18:22:43;;;;;;;12.32;7.65;;;7.70;99.90;;;;;;21087752;28;20032;-80
2022/12/30 18:32:44;;;;;;;12.00;5.03;;;7.70;99.90;;;;;;21088212;28;20119;-80
2022/12/30 18:42:46;;;;;;;10.35;4.72;;;7.90;99.90;;;;;;21031254;28;20578;-81
2022/12/30 18:52:46;;;;;;;1.80;1.10;;;8.40;99.90;;;;;;21028515;28;20056;-80
2022/12/30 19:02:47;;;;;;;1.97;1.37;;;9.40;99.90;;;;;;21096480;28;20028;-81
2022/12/30 19:12:48;;;;;;;6.57;2.87;;;10.00;99.90;;;;;;21093390;28;20030;-81
2022/12/30 19:22:50;;;;;;;2.73;1.50;;;10.00;99.90;;;;;;21094210;28;20109;-80
2022/12/30 19:32:54;;;;;;;1.10;0.80;;;10.20;99.90;;;;;;21096183;28;20032;-80
2022/12/30 19:42:55;;;;;;;4.73;2.80;;;10.10;99.90;;;;;;21095583;28;20039;-80
2022/12/30 19:52:57;;;;;;;5.90;1.15;;;10.40;99.90;;;;;;21094016;28;20538;-82
2022/12/30 20:02:58;;;;;;;4.07;1.60;;;10.80;99.90;;;;;;21078404;28;20036;-81
2022/12/30 20:13:00;;;;;;;15.27;5.53;;;11.40;99.90;;;;;;21098395;28;20081;-81
2022/12/30 20:23:00;;;;;;;13.87;4.77;;;11.40;99.90;;;;;;21101270;28;20420;-81
2022/12/30 20:33:04;;;;;;;5.10;2.53;;;11.00;99.90;;;;;;21087071;28;20059;-82
2022/12/30 20:43:05;;;;;;;10.90;3.47;;;10.80;99.90;;;;;;21088242;28;20028;-81
2022/12/30 20:53:06;;;;;;;6.23;3.47;;;10.60;99.90;;;;;;21096605;28;20539;-82
2022/12/30 21:03:09;;;;;;;6.60;3.63;;;10.10;99.90;;;;;;21048858;28;20066;-81
2022/12/30 21:13:11;;;;;;;5.47;3.13;;;9.80;99.90;;;;;;21066118;28;20039;-81
2022/12/30 21:23:14;;;;;;;17.27;7.22;;;9.70;99.90;;;;;;21063919;28;20043;-81
2022/12/30 21:33:15;;;;;;;26.30;8.43;;;10.00;99.90;;;;;;21066737;28;20123;-83
2022/12/30 22:04:00;;;;;;;4.33;2.50;;;10.40;99.90;;;;;;21068349;28;20024;-81
2022/12/30 22:14:03;;;;;;;5.97;2.17;;;10.60;99.90;;;;;;21068752;28;20036;-82
2022/12/30 22:24:04;;;;;;;5.75;2.83;;;10.90;99.90;;;;;;21099356;28;20029;-81
2022/12/30 22:34:06;;;;;;;7.40;3.53;;;11.00;99.90;;;;;;21082906;28;20107;-83
2022/12/30 22:44:07;;;;;;;10.02;2.95;;;11.20;99.90;;;;;;21042668;28;20063;-82
2022/12/30 22:54:11;;;;;;;3.85;1.75;;;11.40;99.90;;;;;;21024354;28;20055;-83
2022/12/30 23:04:12;;;;;;;3.37;1.60;;;11.80;99.90;;;;;;21075841;28;20028;-82
2022/12/30 23:34:52;;;;;;;2.45;0.90;;;12.00;99.90;;;;;;20880289;28;20041;-87
2022/12/30 23:44:53;;;;;;;1.40;0.67;;;12.00;99.90;;;;;;20905767;28;20275;-86
2022/12/30 23:54:57;;;;;;;3.10;0.80;;;12.10;99.90;;;;;;20905130;28;20756;-87
